Aviation Digital Data Service (ADDS)

Output produced by METARs form (1810 UTC 14 August 2018)
found at http://www.aviationweather.gov/adds/metars/
 
FWCL 141500Z 07008KT CAVOK 28/08 Q1022 NOSIG
TAF FWCL 141400Z 1418/1524 09009KT CAVOK